Terminal Aerodrome Forecast
Issued by NWS

Home | Current Version | Previous Version | Text Only | Print | Product List | Glossary On
Versions: 1 2 3 4 5 6 7 8 9 10 11 12 13 14 15 16
000
FTUS46 KMFR 270544
TAFRBG
TAF
KRBG 270544Z 2706/2806 18009KT P6SM -SHRA SCT015 OVC035
      TEMPO 2706/2707 BKN015
     FM270700 VRB03KT 4SM -SHRA BR OVC020
     FM272000 32010KT P6SM -SHRA VCTS SCT020 OVC035CB
     FM280300 VRB02KT P6SM -SHRA OVC025=

USA.gov is the U.S. government's official web portal to all federal, state and local government web resources and services.